createdAt,value
2018-10-06T00:01:14.711Z,2.20
2018-10-06T00:03:42.230Z,2.00
2018-10-06T00:08:37.347Z,1.80
2018-10-06T00:11:04.958Z,2.23
2018-10-06T00:13:32.890Z,2.20
2018-10-06T00:16:01.611Z,2.23
2018-10-06T00:18:29.190Z,2.20
2018-10-06T00:23:24.616Z,2.30
2018-10-06T00:25:52.186Z,1.90
2018-10-06T00:28:19.987Z,2.20
2018-10-06T00:30:47.634Z,1.80
2018-10-06T00:33:15.187Z,2.20
2018-10-06T00:38:10.121Z,2.23
2018-10-06T00:40:37.652Z,2.07
2018-10-06T00:45:32.375Z,2.33
2018-10-06T00:47:59.997Z,2.03
2018-10-06T00:50:27.923Z,2.57
2018-10-06T00:52:56.066Z,2.00
2018-10-06T00:55:23.610Z,2.43
2018-10-06T01:00:18.706Z,2.20
2018-10-06T01:02:46.289Z,2.00
2018-10-06T01:07:41.186Z,2.00
2018-10-06T01:10:09.040Z,2.10
2018-10-06T01:15:03.983Z,1.73
2018-10-06T01:17:31.660Z,2.17
2018-10-06T01:22:26.495Z,2.10
2018-10-06T01:24:55.743Z,2.03
2018-10-06T01:27:23.526Z,2.20
2018-10-06T01:29:51.066Z,2.43
2018-10-06T01:32:18.606Z,2.00
2018-10-06T01:37:13.264Z,2.10
2018-10-06T01:39:40.827Z,1.87
2018-10-06T01:44:36.023Z,2.20
2018-10-06T01:47:03.583Z,2.40
2018-10-06T01:51:58.614Z,2.20
2018-10-06T01:54:26.222Z,2.27
2018-10-06T01:59:21.280Z,1.97
2018-10-06T02:01:48.908Z,2.07
2018-10-06T02:06:44.963Z,1.90
2018-10-06T02:09:12.555Z,1.80
2018-10-06T02:14:07.203Z,1.97
2018-10-06T02:16:34.887Z,1.97
2018-10-06T02:21:29.591Z,1.90
2018-10-06T02:23:57.121Z,1.80
2018-10-06T02:28:52.590Z,1.70
2018-10-06T02:31:20.207Z,2.10
2018-10-06T02:36:15.038Z,1.90
2018-10-06T02:38:42.581Z,2.27
2018-10-06T02:41:10.383Z,2.30
2018-10-06T02:43:37.977Z,2.33
2018-10-06T02:46:05.639Z,2.20
2018-10-06T02:48:33.775Z,2.10
2018-10-06T02:51:01.572Z,2.07
2018-10-06T02:53:29.233Z,2.37
2018-10-06T02:55:57.096Z,2.10
2018-10-06T02:58:24.704Z,2.30
2018-10-06T03:00:52.329Z,2.70
2018-10-06T03:03:20.000Z,2.50
2018-10-06T03:05:47.552Z,1.93
2018-10-06T03:08:15.085Z,2.30
2018-10-06T03:10:42.731Z,2.00
2018-10-06T03:13:10.256Z,2.20
2018-10-06T03:15:37.919Z,1.97
2018-10-06T03:18:05.658Z,2.40
2018-10-06T03:20:33.259Z,2.10
2018-10-06T03:23:00.795Z,2.03
2018-10-06T03:25:28.537Z,2.20
2018-10-06T03:27:56.100Z,2.17
2018-10-06T03:30:23.805Z,2.53
2018-10-06T03:32:51.444Z,2.40
2018-10-06T03:35:19.202Z,2.33
2018-10-06T03:37:46.803Z,2.20
2018-10-06T03:40:14.602Z,2.20
2018-10-06T03:42:42.260Z,2.47
2018-10-06T03:45:10.517Z,2.17
2018-10-06T03:47:38.218Z,2.10
2018-10-06T03:50:07.531Z,2.50
2018-10-06T03:52:35.395Z,2.40
2018-10-06T03:55:03.047Z,2.43
2018-10-06T03:57:30.690Z,2.33
2018-10-06T03:59:58.501Z,2.60
2018-10-06T04:02:26.115Z,2.43
2018-10-06T04:04:54.340Z,2.57
2018-10-06T04:07:22.173Z,2.40
2018-10-06T04:09:49.719Z,2.60
2018-10-06T04:12:17.311Z,1.90
2018-10-06T04:14:45.449Z,2.60
2018-10-06T04:17:13.040Z,2.73
2018-10-06T04:19:40.571Z,2.47
2018-10-06T04:22:08.525Z,2.63
2018-10-06T04:24:36.082Z,2.83
2018-10-06T04:27:03.642Z,2.80
2018-10-06T04:29:31.618Z,3.20
2018-10-06T04:31:59.212Z,3.00
2018-10-06T04:34:26.751Z,3.10
2018-10-06T04:36:54.336Z,3.17
2018-10-06T04:39:21.934Z,3.30
2018-10-06T04:41:49.515Z,3.63
2018-10-06T04:44:17.429Z,3.47
2018-10-06T04:46:45.019Z,3.67
2018-10-06T04:49:20.675Z,3.33
2018-10-06T04:52:19.170Z,3.20
2018-10-06T04:54:47.272Z,3.40
2018-10-06T04:57:25.447Z,3.37
2018-10-06T04:59:53.735Z,4.00
2018-10-06T05:02:23.823Z,3.07
2018-10-06T05:05:11.378Z,3.53
2018-10-06T05:07:39.141Z,3.13
2018-10-06T05:10:06.807Z,2.87
2018-10-06T05:12:34.829Z,2.90
2018-10-06T05:15:03.028Z,3.07
2018-10-06T05:17:30.695Z,3.00
2018-10-06T05:19:58.577Z,3.03
2018-10-06T05:22:26.241Z,2.50
2018-10-06T05:24:53.882Z,2.90
2018-10-06T05:27:21.853Z,3.03
2018-10-06T05:29:49.495Z,2.90
2018-10-06T05:32:17.143Z,2.90
2018-10-06T05:34:45.480Z,2.47
2018-10-06T05:37:13.122Z,2.30
2018-10-06T05:39:40.942Z,2.80
2018-10-06T05:42:08.795Z,2.60
2018-10-06T05:44:36.541Z,2.70
2018-10-06T05:47:04.238Z,2.40
2018-10-06T05:49:32.400Z,2.50
2018-10-06T05:52:00.334Z,2.63
2018-10-06T05:54:28.124Z,2.70
2018-10-06T05:56:56.133Z,2.50
2018-10-06T05:59:23.699Z,3.00
2018-10-06T06:01:51.375Z,2.53
2018-10-06T06:04:37.889Z,2.57
2018-10-06T06:07:34.266Z,2.53
2018-10-06T06:10:39.883Z,2.30
2018-10-06T06:13:07.501Z,2.20
2018-10-06T06:15:36.118Z,2.67
2018-10-06T06:18:03.834Z,2.70
2018-10-06T06:20:31.570Z,2.50
2018-10-06T06:22:59.109Z,2.30
2018-10-06T06:25:26.832Z,2.67
2018-10-06T06:27:54.461Z,2.80
2018-10-06T06:30:22.160Z,2.37
2018-10-06T06:32:50.039Z,2.63
2018-10-06T06:35:17.596Z,2.53
2018-10-06T06:37:45.170Z,2.30
2018-10-06T06:40:13.359Z,2.50
2018-10-06T06:42:40.917Z,2.30
2018-10-06T06:45:08.538Z,2.33
2018-10-06T06:47:36.262Z,2.33
2018-10-06T06:50:03.832Z,2.70
2018-10-06T06:52:31.447Z,2.47
2018-10-06T06:54:59.119Z,2.50
2018-10-06T06:57:26.760Z,2.40
2018-10-06T06:59:54.512Z,2.23
2018-10-06T07:02:22.178Z,2.50
2018-10-06T07:04:49.775Z,2.20
2018-10-06T07:07:17.355Z,2.53
2018-10-06T07:09:45.364Z,2.70
2018-10-06T07:12:13.104Z,2.43
2018-10-06T07:14:40.763Z,2.73
2018-10-06T07:17:08.563Z,2.57
2018-10-06T07:19:36.224Z,2.40
2018-10-06T07:22:03.800Z,2.23
2018-10-06T07:24:31.540Z,2.73
2018-10-06T07:26:59.166Z,2.00
2018-10-06T07:29:26.700Z,2.00
2018-10-06T07:31:54.704Z,2.03
2018-10-06T07:34:22.345Z,2.20
2018-10-06T07:36:49.992Z,2.30
2018-10-06T07:39:17.986Z,2.33
2018-10-06T07:41:45.647Z,2.67
2018-10-06T07:44:14.170Z,2.73
2018-10-06T07:46:42.074Z,2.40
2018-10-06T07:49:09.671Z,2.10
2018-10-06T07:51:37.317Z,2.43
2018-10-06T07:54:05.212Z,2.40
2018-10-06T07:56:33.713Z,2.27
2018-10-06T07:59:01.243Z,2.10
2018-10-06T08:01:28.855Z,2.33
2018-10-06T08:03:57.022Z,2.63
2018-10-06T08:06:24.668Z,2.40
2018-10-06T08:08:52.217Z,2.10
2018-10-06T08:11:20.133Z,2.33
2018-10-06T08:13:47.735Z,2.57
2018-10-06T08:16:15.301Z,2.47
2018-10-06T08:18:43.151Z,2.03
2018-10-06T08:21:10.680Z,2.67
2018-10-06T08:23:38.257Z,2.47
2018-10-06T08:26:06.362Z,2.40
2018-10-06T08:28:34.087Z,2.23
2018-10-06T08:31:01.976Z,2.47
2018-10-06T08:33:29.626Z,2.53
2018-10-06T08:35:57.227Z,2.60
2018-10-06T08:38:25.494Z,2.50
2018-10-06T08:40:53.303Z,2.20
2018-10-06T08:43:21.046Z,2.27
2018-10-06T08:45:48.910Z,2.10
2018-10-06T08:48:16.563Z,2.50
2018-10-06T08:50:44.409Z,2.27
2018-10-06T08:53:12.015Z,2.30
2018-10-06T08:55:39.880Z,2.60
2018-10-06T08:58:07.729Z,2.30
2018-10-06T09:00:35.710Z,2.07
2018-10-06T09:03:03.698Z,2.10
2018-10-06T09:05:31.536Z,2.27
2018-10-06T09:07:59.247Z,2.10
2018-10-06T09:10:26.926Z,2.33
2018-10-06T09:12:55.303Z,2.27
2018-10-06T09:15:23.211Z,1.93
2018-10-06T09:20:28.400Z,2.40
2018-10-06T09:22:56.203Z,2.53
2018-10-06T09:25:24.194Z,2.37
2018-10-06T09:27:52.047Z,2.00
2018-10-06T09:30:19.617Z,2.33
2018-10-06T09:32:47.266Z,2.00
2018-10-06T09:35:15.155Z,2.00
2018-10-06T09:37:42.975Z,2.10
2018-10-06T09:40:10.767Z,2.13
2018-10-06T09:42:39.026Z,2.30
2018-10-06T09:45:06.551Z,1.93
2018-10-06T09:47:34.643Z,2.10
2018-10-06T09:50:02.502Z,1.80
2018-10-06T09:52:30.120Z,2.40
2018-10-06T09:54:58.167Z,2.27
2018-10-06T09:57:27.727Z,1.93
2018-10-06T09:59:55.540Z,2.00
2018-10-06T10:02:29.046Z,2.60
2018-10-06T10:05:01.241Z,2.03
2018-10-06T10:07:28.832Z,2.03
2018-10-06T10:09:57.471Z,2.20
2018-10-06T10:12:24.972Z,1.83
2018-10-06T10:14:52.560Z,1.77
2018-10-06T10:17:20.449Z,2.07
2018-10-06T10:19:48.183Z,2.00
2018-10-06T10:22:15.473Z,2.10
2018-10-06T10:24:42.903Z,1.90
2018-10-06T10:27:11.071Z,1.97
2018-10-06T10:29:38.671Z,2.00
2018-10-06T10:32:06.585Z,2.10
2018-10-06T10:34:34.663Z,2.10
2018-10-06T10:37:02.179Z,2.03
2018-10-06T10:39:29.847Z,2.03
2018-10-06T10:41:57.807Z,2.20
2018-10-06T10:44:25.446Z,1.90
2018-10-06T10:47:18.450Z,2.30
2018-10-06T10:49:46.019Z,2.30
2018-10-06T10:52:13.617Z,1.80
2018-10-06T10:54:41.560Z,2.40
2018-10-06T10:57:16.730Z,2.97
2018-10-06T10:59:44.736Z,2.00
2018-10-06T11:02:12.285Z,2.37
2018-10-06T11:04:56.200Z,1.90
2018-10-06T11:07:23.828Z,1.70
2018-10-06T11:10:25.830Z,2.20
2018-10-06T11:12:53.411Z,2.10
2018-10-06T11:15:20.955Z,2.07
2018-10-06T11:17:48.962Z,2.00
2018-10-06T11:20:16.541Z,2.03
2018-10-06T11:22:44.213Z,2.10
2018-10-06T11:25:11.930Z,2.00
2018-10-06T11:27:39.574Z,1.90
2018-10-06T11:30:07.700Z,1.80
2018-10-06T11:32:35.384Z,2.20
2018-10-06T11:35:02.986Z,2.10
2018-10-06T11:37:31.081Z,2.10
2018-10-06T11:39:58.663Z,2.40
2018-10-06T11:42:26.479Z,1.90
2018-10-06T11:44:54.236Z,2.20
2018-10-06T11:47:21.885Z,2.43
2018-10-06T11:49:49.498Z,2.23
2018-10-06T11:52:17.318Z,2.30
2018-10-06T11:54:44.942Z,1.90
2018-10-06T11:57:13.073Z,2.20
2018-10-06T11:59:40.846Z,2.63
2018-10-06T12:02:08.720Z,2.30
2018-10-06T12:04:36.297Z,2.27
2018-10-06T12:07:03.942Z,2.03
2018-10-06T12:09:31.809Z,2.17
2018-10-06T12:12:10.015Z,1.93
2018-10-06T12:14:37.778Z,1.90
2018-10-06T12:17:08.071Z,1.90
2018-10-06T12:19:40.843Z,1.87
2018-10-06T12:22:13.958Z,1.87
2018-10-06T12:24:42.374Z,1.50
2018-10-06T12:27:31.708Z,1.80
2018-10-06T12:29:59.512Z,2.00
2018-10-06T12:32:27.254Z,1.87
2018-10-06T12:34:55.066Z,1.80
2018-10-06T12:37:22.605Z,1.80
2018-10-06T12:39:50.295Z,1.70
2018-10-06T12:42:18.019Z,1.70
2018-10-06T12:44:45.999Z,2.00
2018-10-06T12:47:13.577Z,1.83
2018-10-06T12:49:41.157Z,1.77
2018-10-06T12:52:08.952Z,2.10
2018-10-06T12:54:36.521Z,1.93
2018-10-06T12:57:04.221Z,1.90
2018-10-06T12:59:32.034Z,1.80
2018-10-06T13:01:59.695Z,1.50
2018-10-06T13:04:27.253Z,1.90
2018-10-06T13:06:55.034Z,1.57
2018-10-06T13:09:22.584Z,1.73
2018-10-06T13:11:50.207Z,1.90
2018-10-06T13:14:18.036Z,1.90
2018-10-06T13:16:45.587Z,1.67
2018-10-06T13:19:13.954Z,1.77
2018-10-06T13:21:41.531Z,1.90
2018-10-06T13:24:08.971Z,1.80
2018-10-06T13:26:36.613Z,1.70
2018-10-06T13:29:04.490Z,2.00
2018-10-06T13:31:32.078Z,2.10
2018-10-06T13:33:59.965Z,2.20
2018-10-06T13:36:27.566Z,2.10
2018-10-06T13:38:55.089Z,2.20
2018-10-06T13:41:23.075Z,2.13
2018-10-06T13:43:50.668Z,2.00
2018-10-06T13:46:18.571Z,2.03
2018-10-06T13:48:46.164Z,2.10
2018-10-06T13:51:13.756Z,2.13
2018-10-06T13:53:41.363Z,2.37
2018-10-06T13:56:08.933Z,1.80
2018-10-06T13:58:36.798Z,2.00
2018-10-06T14:01:04.327Z,1.90
2018-10-06T14:03:31.890Z,2.00
2018-10-06T14:06:00.190Z,2.10
2018-10-06T14:08:27.705Z,2.00
2018-10-06T14:10:55.279Z,2.07
2018-10-06T14:13:23.078Z,2.33
2018-10-06T14:15:50.757Z,2.37
2018-10-06T14:18:18.330Z,2.20
2018-10-06T14:20:46.197Z,2.43
2018-10-06T14:23:13.695Z,2.40
2018-10-06T14:25:41.887Z,2.60
2018-10-06T14:28:09.918Z,1.90
2018-10-06T14:30:37.455Z,2.50
2018-10-06T14:33:06.027Z,2.30
2018-10-06T14:35:34.339Z,2.60
2018-10-06T14:38:01.848Z,2.13
2018-10-06T14:40:29.446Z,2.40
2018-10-06T14:42:57.230Z,2.57
2018-10-06T14:45:24.838Z,2.30
2018-10-06T14:47:52.403Z,2.67
2018-10-06T14:50:20.274Z,2.47
2018-10-06T14:52:47.772Z,2.90
2018-10-06T14:55:15.362Z,3.00
2018-10-06T14:57:43.160Z,2.30
2018-10-06T15:00:10.729Z,2.80
2018-10-06T15:02:39.182Z,2.60
2018-10-06T15:05:07.045Z,2.73
2018-10-06T15:07:35.141Z,2.80
2018-10-06T15:10:02.694Z,2.53
2018-10-06T15:12:30.334Z,2.90
2018-10-06T15:14:58.760Z,3.13
2018-10-06T15:17:26.522Z,2.70
2018-10-06T15:19:54.289Z,2.67
2018-10-06T15:22:22.547Z,2.93
2018-10-06T15:24:50.856Z,2.40
2018-10-06T15:27:19.331Z,2.40
2018-10-06T15:29:47.099Z,2.50
2018-10-06T15:32:14.634Z,2.83
2018-10-06T15:34:42.187Z,2.70
2018-10-06T15:37:10.395Z,2.60
2018-10-06T15:39:38.082Z,3.30
2018-10-06T15:42:05.730Z,2.73
2018-10-06T15:44:33.674Z,2.83
2018-10-06T15:47:01.870Z,2.63
2018-10-06T15:49:29.664Z,2.70
2018-10-06T15:51:57.462Z,3.07
2018-10-06T15:54:25.276Z,3.00
2018-10-06T15:56:52.947Z,2.53
2018-10-06T15:59:20.755Z,3.03
2018-10-06T16:01:49.074Z,2.97
2018-10-06T16:04:16.751Z,2.43
2018-10-06T16:06:44.794Z,2.93
2018-10-06T16:09:12.477Z,2.87
2018-10-06T16:11:40.090Z,3.20
2018-10-06T16:14:08.114Z,2.97
2018-10-06T16:16:35.891Z,3.23
2018-10-06T16:19:03.441Z,3.23
2018-10-06T16:21:31.075Z,2.90
2018-10-06T16:23:58.579Z,3.10
2018-10-06T16:26:26.195Z,3.20
2018-10-06T16:28:54.502Z,3.03
2018-10-06T16:31:22.082Z,3.00
2018-10-06T16:33:49.694Z,3.03
2018-10-06T16:36:17.346Z,3.37
2018-10-06T16:38:44.878Z,2.97
2018-10-06T16:41:12.464Z,3.07
2018-10-06T16:43:40.413Z,3.23
2018-10-06T16:46:07.966Z,3.60
2018-10-06T16:48:35.554Z,3.50
2018-10-06T16:51:03.823Z,3.60
2018-10-06T16:53:31.394Z,3.23
2018-10-06T16:55:58.999Z,3.50
2018-10-06T16:58:26.809Z,3.67
2018-10-06T17:00:54.347Z,3.77
2018-10-06T17:03:22.362Z,3.33
2018-10-06T17:05:49.947Z,3.83
2018-10-06T17:08:17.530Z,3.73
2018-10-06T17:10:45.319Z,3.77
2018-10-06T17:13:12.890Z,4.10
2018-10-06T17:15:40.642Z,4.13
2018-10-06T17:18:08.163Z,3.87
2018-10-06T17:20:35.786Z,4.40
2018-10-06T17:23:03.610Z,3.77
2018-10-06T17:25:31.201Z,4.13
2018-10-06T17:27:58.820Z,4.40
2018-10-06T17:30:26.561Z,4.00
2018-10-06T17:32:54.088Z,4.33
2018-10-06T17:35:21.648Z,4.60
2018-10-06T17:37:49.550Z,4.30
2018-10-06T17:40:17.100Z,4.40
2018-10-06T17:42:44.754Z,4.27
2018-10-06T17:45:12.344Z,4.50
2018-10-06T17:47:39.920Z,3.83
2018-10-06T17:50:07.930Z,4.10
2018-10-06T17:52:35.457Z,4.20
2018-10-06T17:55:03.324Z,4.17
2018-10-06T17:57:30.955Z,4.40
2018-10-06T17:59:59.338Z,4.80
2018-10-06T18:02:26.919Z,4.83
2018-10-06T18:04:54.592Z,4.83
2018-10-06T18:07:22.176Z,4.73
2018-10-06T18:09:49.794Z,4.33
2018-10-06T18:12:18.678Z,4.73
2018-10-06T18:14:46.273Z,4.40
2018-10-06T18:17:13.868Z,4.73
2018-10-06T18:19:41.429Z,5.60
2018-10-06T18:22:09.006Z,5.10
2018-10-06T18:24:36.812Z,4.73
2018-10-06T18:27:04.301Z,5.03
2018-10-06T18:29:32.004Z,5.23
2018-10-06T18:33:45.827Z,4.83
2018-10-06T18:36:13.358Z,4.90
2018-10-06T18:38:40.937Z,5.00
2018-10-06T18:41:08.984Z,5.07
2018-10-06T18:43:36.588Z,5.23
2018-10-06T18:46:04.135Z,4.50
2018-10-06T18:48:32.156Z,4.77
2018-10-06T18:50:59.721Z,4.77
2018-10-06T18:53:27.275Z,4.57
2018-10-06T18:55:55.047Z,4.50
2018-10-06T18:58:22.603Z,4.90
2018-10-06T19:00:50.178Z,4.83
2018-10-06T19:03:18.024Z,5.47
2018-10-06T19:05:45.587Z,4.87
2018-10-06T19:08:13.257Z,4.97
2018-10-06T19:10:41.056Z,4.67
2018-10-06T19:13:08.634Z,4.80
2018-10-06T19:15:36.276Z,4.83
2018-10-06T19:18:04.150Z,4.83
2018-10-06T19:20:31.725Z,4.97
2018-10-06T19:22:59.292Z,4.43
2018-10-06T19:25:27.101Z,4.93
2018-10-06T19:27:54.678Z,4.50
2018-10-06T19:30:22.789Z,4.47
2018-10-06T19:32:51.095Z,3.90
2018-10-06T19:35:18.699Z,4.57
2018-10-06T19:37:46.070Z,4.50
2018-10-06T19:40:13.982Z,4.40
2018-10-06T19:42:41.518Z,4.17
2018-10-06T19:45:09.415Z,4.20
2018-10-06T19:47:36.964Z,4.43
2018-10-06T19:50:04.631Z,4.43
2018-10-06T19:52:32.565Z,4.60
2018-10-06T19:55:00.074Z,4.03
2018-10-06T19:57:27.655Z,4.57
2018-10-06T19:59:55.789Z,4.30
2018-10-06T20:02:23.427Z,4.27
2018-10-06T20:04:50.995Z,4.43
2018-10-06T20:07:18.827Z,4.07
2018-10-06T20:09:46.376Z,4.17
2018-10-06T20:12:13.972Z,4.47
2018-10-06T20:14:41.749Z,4.80
2018-10-06T20:17:09.309Z,4.50
2018-10-06T20:19:36.930Z,4.83
2018-10-06T20:22:07.446Z,4.80
2018-10-06T20:24:35.003Z,5.00
2018-10-06T20:27:02.625Z,4.80
2018-10-06T20:29:30.470Z,4.83
2018-10-06T20:31:58.095Z,4.23
2018-10-06T20:34:25.965Z,5.00
2018-10-06T20:36:53.546Z,4.33
2018-10-06T20:39:21.436Z,4.80
2018-10-06T20:41:49.021Z,4.37
2018-10-06T20:44:16.551Z,4.80
2018-10-06T20:46:44.247Z,4.30
2018-10-06T20:49:11.824Z,4.47
2018-10-06T20:51:39.399Z,4.07
2018-10-06T20:54:07.172Z,4.37
2018-10-06T20:56:34.726Z,4.53
2018-10-06T20:59:02.406Z,4.30
2018-10-06T21:01:30.386Z,4.30
2018-10-06T21:03:57.918Z,4.40
2018-10-06T21:06:25.469Z,4.53
2018-10-06T21:08:53.362Z,4.50
2018-10-06T21:11:20.880Z,4.17
2018-10-06T21:13:48.441Z,4.30
2018-10-06T21:16:16.227Z,4.07
2018-10-06T21:18:43.779Z,3.90
2018-10-06T21:21:11.510Z,4.27
2018-10-06T21:23:39.500Z,3.93
2018-10-06T21:26:07.548Z,3.70
2018-10-06T21:28:35.178Z,3.77
2018-10-06T21:31:02.947Z,3.63
2018-10-06T21:33:31.181Z,4.23
2018-10-06T21:35:58.743Z,4.13
2018-10-06T21:38:26.411Z,4.10
2018-10-06T21:40:54.073Z,4.33
2018-10-06T21:43:21.709Z,3.87
2018-10-06T21:45:49.257Z,4.17
2018-10-06T21:48:17.095Z,4.03
2018-10-06T21:50:44.707Z,3.80
2018-10-06T21:53:12.317Z,4.20
2018-10-06T21:55:40.517Z,3.97
2018-10-06T21:58:08.035Z,3.90
2018-10-06T22:00:35.670Z,3.90
2018-10-06T22:03:03.907Z,3.67
2018-10-06T22:05:31.476Z,4.00
2018-10-06T22:07:59.003Z,3.77
2018-10-06T22:10:27.147Z,4.10
2018-10-06T22:12:54.666Z,3.60
2018-10-06T22:15:22.398Z,4.00
2018-10-06T22:17:50.145Z,3.63
2018-10-06T22:20:17.715Z,3.87
2018-10-06T22:22:45.322Z,3.97
2018-10-06T22:25:12.947Z,3.67
2018-10-06T22:27:40.554Z,3.60
2018-10-06T22:30:08.664Z,3.73
2018-10-06T22:32:36.209Z,4.00
2018-10-06T22:35:03.862Z,4.17
2018-10-06T22:37:32.082Z,3.87
2018-10-06T22:39:59.609Z,3.80
2018-10-06T22:42:28.497Z,4.20
2018-10-06T22:44:56.070Z,3.60
2018-10-06T22:47:23.919Z,3.53
2018-10-06T22:49:51.974Z,4.07
2018-10-06T22:52:19.598Z,4.13
2018-10-06T22:54:47.156Z,3.83
2018-10-06T22:57:15.077Z,3.90
2018-10-06T22:59:42.698Z,3.73
2018-10-06T23:02:10.704Z,4.00
2018-10-06T23:04:38.263Z,4.03
2018-10-06T23:07:05.909Z,3.63
2018-10-06T23:09:33.799Z,4.23
2018-10-06T23:12:01.393Z,4.00
2018-10-06T23:14:28.932Z,4.27
2018-10-06T23:16:56.981Z,4.00
2018-10-06T23:19:24.679Z,3.83
2018-10-06T23:21:52.204Z,4.00
2018-10-06T23:24:20.099Z,4.50
2018-10-06T23:26:47.650Z,4.57
2018-10-06T23:29:15.368Z,3.67
2018-10-06T23:31:43.322Z,4.23
2018-10-06T23:34:10.881Z,3.73
2018-10-06T23:36:38.487Z,4.27
2018-10-06T23:39:06.830Z,4.30
2018-10-06T23:41:34.431Z,4.30
2018-10-06T23:44:01.877Z,3.80
2018-10-06T23:46:29.549Z,4.20
2018-10-06T23:48:57.118Z,4.00
2018-10-06T23:51:24.902Z,4.00
2018-10-06T23:53:52.458Z,3.90
2018-10-06T23:56:20.042Z,3.97
2018-10-06T23:58:47.990Z,4.23
